createdAt,value
2022-10-25T00:00:47.003Z,14.60
2022-10-25T00:01:46.894Z,14.60
2022-10-25T00:02:47.036Z,14.61
2022-10-25T00:03:46.728Z,14.62
2022-10-25T00:05:07.929Z,14.62
2022-10-25T00:05:46.705Z,14.62
2022-10-25T00:06:46.939Z,14.64
2022-10-25T00:07:46.958Z,14.64
2022-10-25T00:08:46.930Z,14.64
2022-10-25T00:09:46.669Z,14.65
2022-10-25T00:10:46.908Z,14.68
2022-10-25T00:11:46.671Z,14.68
2022-10-25T00:12:46.907Z,14.68
2022-10-25T00:13:46.650Z,14.69
2022-10-25T00:15:08.336Z,14.68
2022-10-25T00:15:46.639Z,14.69
2022-10-25T00:16:46.375Z,14.70
2022-10-25T00:17:46.863Z,14.69
2022-10-25T00:18:46.873Z,14.69
2022-10-25T00:19:46.619Z,14.70
2022-10-25T00:20:46.362Z,14.72
2022-10-25T00:21:47.611Z,14.72
2022-10-25T00:22:46.546Z,14.70
2022-10-25T00:23:46.579Z,14.73
2022-10-25T00:25:07.783Z,14.73
2022-10-25T00:25:46.583Z,14.73
2022-10-25T00:26:46.317Z,14.75
2022-10-25T00:27:46.566Z,14.77
2022-10-25T00:28:46.293Z,14.75
2022-10-25T00:29:46.553Z,14.75
2022-10-25T00:30:46.292Z,14.75
2022-10-25T00:31:46.545Z,14.75
2022-10-25T00:32:46.596Z,14.73
2022-10-25T00:33:46.528Z,14.73
2022-10-25T00:35:07.234Z,14.75
2022-10-25T00:35:46.533Z,14.73
2022-10-25T00:36:46.254Z,14.73
2022-10-25T00:37:46.564Z,14.72
2022-10-25T00:38:46.348Z,14.72
2022-10-25T00:39:46.484Z,14.73
2022-10-25T00:40:46.243Z,14.72
2022-10-25T00:41:46.484Z,14.72
2022-10-25T00:42:46.580Z,14.72
2022-10-25T00:43:46.475Z,14.70
2022-10-25T00:45:08.211Z,14.68
2022-10-25T00:45:46.487Z,14.68
2022-10-25T00:46:46.252Z,14.65
2022-10-25T00:47:46.765Z,14.65
2022-10-25T00:48:46.218Z,14.62
2022-10-25T00:49:46.474Z,14.62
2022-10-25T00:50:46.208Z,14.61
2022-10-25T00:51:46.451Z,14.60
2022-10-25T00:52:46.184Z,14.57
2022-10-25T00:53:46.434Z,14.54
2022-10-25T00:55:07.137Z,14.54
2022-10-25T00:55:46.420Z,14.51
2022-10-25T00:56:46.170Z,14.50
2022-10-25T00:57:46.769Z,14.47
2022-10-25T00:58:46.304Z,14.43
2022-10-25T00:59:46.378Z,14.43
2022-10-25T01:00:46.146Z,14.42
2022-10-25T01:01:46.469Z,14.40
2022-10-25T01:02:46.245Z,14.39
2022-10-25T01:03:46.371Z,14.39
2022-10-25T01:05:07.094Z,14.37
2022-10-25T01:05:45.887Z,14.37
2022-10-25T01:06:46.123Z,14.36
2022-10-25T01:07:46.123Z,14.35
2022-10-25T01:08:46.105Z,14.33
2022-10-25T01:09:45.840Z,14.33
2022-10-25T01:10:46.095Z,14.33
2022-10-25T01:11:45.825Z,14.32
2022-10-25T01:12:47.575Z,14.32
2022-10-25T01:13:46.804Z,14.32
2022-10-25T01:15:07.527Z,14.28
2022-10-25T01:15:45.821Z,14.28
2022-10-25T01:16:46.071Z,14.28
2022-10-25T01:17:45.803Z,14.27
2022-10-25T01:18:46.057Z,14.28
2022-10-25T01:19:45.821Z,14.27
2022-10-25T01:20:46.120Z,14.28
2022-10-25T01:21:45.825Z,14.27
2022-10-25T01:22:46.419Z,14.25
2022-10-25T01:23:45.809Z,14.24
2022-10-25T01:25:07.016Z,14.22
2022-10-25T01:25:45.800Z,14.21
2022-10-25T01:26:46.046Z,14.21
2022-10-25T01:27:45.809Z,14.20
2022-10-25T01:28:46.008Z,14.21
2022-10-25T01:29:45.758Z,14.18
2022-10-25T01:30:46.001Z,14.20
2022-10-25T01:31:45.744Z,14.18
2022-10-25T01:32:46.326Z,14.20
2022-10-25T01:33:45.745Z,14.17
2022-10-25T01:35:06.940Z,14.17
2022-10-25T01:35:45.713Z,14.17
2022-10-25T01:36:45.966Z,14.15
2022-10-25T01:37:46.044Z,14.17
2022-10-25T01:38:45.930Z,14.17
2022-10-25T01:39:45.681Z,14.17
2022-10-25T01:40:45.932Z,14.15
2022-10-25T01:41:45.662Z,14.15
2022-10-25T01:42:45.920Z,14.17
2022-10-25T01:43:45.670Z,14.15
2022-10-25T01:45:07.891Z,14.17
2022-10-25T01:45:45.666Z,14.17
2022-10-25T01:46:45.915Z,14.17
2022-10-25T01:47:45.816Z,14.14
2022-10-25T01:48:45.910Z,14.15
2022-10-25T01:49:45.642Z,14.15
2022-10-25T01:50:45.885Z,14.17
2022-10-25T01:51:45.624Z,14.14
2022-10-25T01:52:45.442Z,14.12
2022-10-25T01:53:45.625Z,14.14
2022-10-25T01:55:07.835Z,14.12
2022-10-25T01:55:45.633Z,14.12
2022-10-25T01:56:45.366Z,14.12
2022-10-25T01:57:45.894Z,14.12
2022-10-25T01:58:45.361Z,14.10
2022-10-25T01:59:45.594Z,14.10
2022-10-25T02:00:45.373Z,14.10
2022-10-25T02:01:45.713Z,14.07
2022-10-25T02:02:45.612Z,14.07
2022-10-25T02:03:45.593Z,14.07
2022-10-25T02:05:05.341Z,14.07
2022-10-25T02:05:45.565Z,14.06
2022-10-25T02:06:45.302Z,14.06
2022-10-25T02:07:45.593Z,14.06
2022-10-25T02:08:45.355Z,14.04
2022-10-25T02:09:45.618Z,14.04
2022-10-25T02:10:45.405Z,14.06
2022-10-25T02:11:45.685Z,14.06
2022-10-25T02:12:45.804Z,14.06
2022-10-25T02:13:45.239Z,14.06
2022-10-25T02:15:06.457Z,14.07
2022-10-25T02:15:45.299Z,14.07
2022-10-25T02:16:47.004Z,14.06
2022-10-25T02:17:45.365Z,14.03
2022-10-25T02:18:45.649Z,14.04
2022-10-25T02:19:45.401Z,14.04
2022-10-25T02:20:46.727Z,14.06
2022-10-25T02:21:45.468Z,14.04
2022-10-25T02:22:45.755Z,14.04
2022-10-25T02:23:45.537Z,14.06
2022-10-25T02:25:05.319Z,14.04
2022-10-25T02:25:45.051Z,14.04
2022-10-25T02:26:45.405Z,14.03
2022-10-25T02:27:45.394Z,14.04
2022-10-25T02:28:46.842Z,14.03
2022-10-25T02:29:45.201Z,14.03
2022-10-25T02:30:45.455Z,14.02
2022-10-25T02:31:45.259Z,14.00
2022-10-25T02:32:45.510Z,14.02
2022-10-25T02:33:45.301Z,14.02
2022-10-25T02:35:05.218Z,14.00
2022-10-25T02:35:45.341Z,14.00
2022-10-25T02:36:45.132Z,13.99
2022-10-25T02:37:45.666Z,13.97
2022-10-25T02:38:45.175Z,13.97
2022-10-25T02:39:44.981Z,13.97
2022-10-25T02:40:45.241Z,13.96
2022-10-25T02:41:45.051Z,13.96
2022-10-25T02:42:45.278Z,13.96
2022-10-25T02:43:45.016Z,13.96
2022-10-25T02:45:05.288Z,13.95
2022-10-25T02:45:45.008Z,13.95
2022-10-25T02:46:45.247Z,13.96
2022-10-25T02:47:45.335Z,13.92
2022-10-25T02:48:45.240Z,13.96
2022-10-25T02:49:45.021Z,13.95
2022-10-25T02:50:44.767Z,13.92
2022-10-25T02:51:45.028Z,13.95
2022-10-25T02:52:45.092Z,13.92
2022-10-25T02:53:44.997Z,13.95
2022-10-25T02:55:05.390Z,13.95
2022-10-25T02:55:44.998Z,13.96
2022-10-25T02:56:44.736Z,13.96
2022-10-25T02:57:44.974Z,13.96
2022-10-25T02:58:44.711Z,13.97
2022-10-25T02:59:44.971Z,13.97
2022-10-25T03:00:44.739Z,13.97
2022-10-25T03:01:44.979Z,13.96
2022-10-25T03:02:45.057Z,13.97
2022-10-25T03:03:44.970Z,13.97
2022-10-25T03:05:04.725Z,13.99
2022-10-25T03:05:44.941Z,13.99
2022-10-25T03:06:44.709Z,13.97
2022-10-25T03:07:44.936Z,13.99
2022-10-25T03:08:44.692Z,13.99
2022-10-25T03:09:44.915Z,13.99
2022-10-25T03:10:44.654Z,13.99
2022-10-25T03:11:44.902Z,13.99
2022-10-25T03:12:44.902Z,13.99
2022-10-25T03:13:44.900Z,13.99
2022-10-25T03:15:04.655Z,14.02
2022-10-25T03:15:44.897Z,14.00
2022-10-25T03:16:44.702Z,14.00
2022-10-25T03:17:45.145Z,13.99
2022-10-25T03:18:44.619Z,13.99
2022-10-25T03:19:44.869Z,14.00
2022-10-25T03:20:44.645Z,14.00
2022-10-25T03:21:44.885Z,14.00
2022-10-25T03:22:44.634Z,13.99
2022-10-25T03:23:44.870Z,14.00
2022-10-25T03:25:04.750Z,14.00
2022-10-25T03:25:44.878Z,14.02
2022-10-25T03:26:44.617Z,14.02
2022-10-25T03:27:45.177Z,14.00
2022-10-25T03:28:44.604Z,14.02
2022-10-25T03:29:44.850Z,14.02
2022-10-25T03:30:44.580Z,14.02
2022-10-25T03:31:44.821Z,14.00
2022-10-25T03:32:44.574Z,13.99
2022-10-25T03:33:44.310Z,13.97
2022-10-25T03:35:04.573Z,13.97
2022-10-25T03:35:44.304Z,13.99
2022-10-25T03:36:44.556Z,13.97
2022-10-25T03:37:44.533Z,13.99
2022-10-25T03:38:44.553Z,13.97
2022-10-25T03:39:44.294Z,13.97
2022-10-25T03:40:44.559Z,13.96
2022-10-25T03:41:44.294Z,13.96
2022-10-25T03:42:44.535Z,13.97
2022-10-25T03:43:44.274Z,13.96
2022-10-25T03:45:04.605Z,13.97
2022-10-25T03:45:44.284Z,13.97
2022-10-25T03:46:44.535Z,13.97
2022-10-25T03:47:44.567Z,13.97
2022-10-25T03:48:44.523Z,13.99
2022-10-25T03:49:44.273Z,13.99
2022-10-25T03:50:44.506Z,13.99
2022-10-25T03:51:44.249Z,13.99
2022-10-25T03:52:44.486Z,13.99
2022-10-25T03:53:44.225Z,13.97
2022-10-25T03:55:04.502Z,13.99
2022-10-25T03:55:44.667Z,13.99
2022-10-25T03:56:44.488Z,13.99
2022-10-25T03:57:44.567Z,13.99
2022-10-25T03:58:44.485Z,13.99
2022-10-25T03:59:44.219Z,13.97
2022-10-25T04:00:44.518Z,14.00
2022-10-25T04:01:44.321Z,13.97
2022-10-25T04:02:44.523Z,13.96
2022-10-25T04:03:44.168Z,13.96
2022-10-25T04:05:04.445Z,13.96
2022-10-25T04:05:44.160Z,13.96
2022-10-25T04:06:44.408Z,13.95
2022-10-25T04:07:44.372Z,13.92
2022-10-25T04:08:44.411Z,13.92
2022-10-25T04:09:44.164Z,13.91
2022-10-25T04:10:44.391Z,13.91
2022-10-25T04:11:44.139Z,13.91
2022-10-25T04:12:44.429Z,13.89
2022-10-25T04:13:44.116Z,13.91
2022-10-25T04:15:04.383Z,13.89
2022-10-25T04:15:44.141Z,13.89
2022-10-25T04:16:44.379Z,13.88
2022-10-25T04:17:44.316Z,13.88
2022-10-25T04:18:43.863Z,13.88
2022-10-25T04:19:44.111Z,13.85
2022-10-25T04:20:43.862Z,13.85
2022-10-25T04:21:44.118Z,13.85
2022-10-25T04:22:43.853Z,13.84
2022-10-25T04:23:44.084Z,13.82
2022-10-25T04:25:04.339Z,13.81
2022-10-25T04:25:44.073Z,13.81
2022-10-25T04:26:43.794Z,13.79
2022-10-25T04:27:44.229Z,13.78
2022-10-25T04:28:43.784Z,13.77
2022-10-25T04:29:44.026Z,13.77
2022-10-25T04:30:43.775Z,13.77
2022-10-25T04:31:44.017Z,13.73
2022-10-25T04:32:43.865Z,13.71
2022-10-25T04:33:46.624Z,13.71
2022-10-25T04:35:04.755Z,13.71
2022-10-25T04:35:43.986Z,13.71
2022-10-25T04:36:43.717Z,13.70
2022-10-25T04:37:43.958Z,13.70
2022-10-25T04:38:43.699Z,13.69
2022-10-25T04:39:43.947Z,13.67
2022-10-25T04:40:43.687Z,13.66
2022-10-25T04:41:43.926Z,13.67
2022-10-25T04:42:43.858Z,13.66
2022-10-25T04:43:43.926Z,13.64
2022-10-25T04:45:04.180Z,13.66
2022-10-25T04:45:43.897Z,13.63
2022-10-25T04:46:46.442Z,13.64
2022-10-25T04:47:44.881Z,13.64
2022-10-25T04:48:43.627Z,13.64
2022-10-25T04:49:43.869Z,13.66
2022-10-25T04:50:43.619Z,13.67
2022-10-25T04:51:43.914Z,13.66
2022-10-25T04:52:43.832Z,13.67
2022-10-25T04:53:43.865Z,13.64
2022-10-25T04:55:03.629Z,13.63
2022-10-25T04:55:43.870Z,13.63
2022-10-25T04:56:43.593Z,13.62
2022-10-25T04:57:43.837Z,13.60
2022-10-25T04:58:43.574Z,13.59
2022-10-25T04:59:43.811Z,13.60
2022-10-25T05:00:43.551Z,13.59
2022-10-25T05:01:43.982Z,13.57
2022-10-25T05:02:43.629Z,13.55
2022-10-25T05:03:43.801Z,13.55
2022-10-25T05:05:03.613Z,13.55
2022-10-25T05:05:43.835Z,13.55
2022-10-25T05:06:43.591Z,13.54
2022-10-25T05:07:43.820Z,13.54
2022-10-25T05:08:43.566Z,13.52
2022-10-25T05:09:46.605Z,13.49
2022-10-25T05:10:43.551Z,13.48
2022-10-25T05:11:43.801Z,13.48
2022-10-25T05:12:43.745Z,13.46
2022-10-25T05:13:43.795Z,13.48
2022-10-25T05:15:03.527Z,13.48
2022-10-25T05:15:43.764Z,13.48
2022-10-25T05:16:43.506Z,13.46
2022-10-25T05:17:43.736Z,13.46
2022-10-25T05:18:43.498Z,13.45
2022-10-25T05:19:43.252Z,13.45
2022-10-25T05:20:43.469Z,13.44
2022-10-25T05:21:43.218Z,13.42
2022-10-25T05:22:43.511Z,13.41
2022-10-25T05:23:43.214Z,13.39
2022-10-25T05:25:03.479Z,13.39
2022-10-25T05:25:43.719Z,13.39
2022-10-25T05:26:43.458Z,13.39
2022-10-25T05:27:43.211Z,13.38
2022-10-25T05:28:43.445Z,13.38
2022-10-25T05:29:43.182Z,13.39
2022-10-25T05:30:43.431Z,13.38
2022-10-25T05:31:43.186Z,13.38
2022-10-25T05:32:43.425Z,13.36
2022-10-25T05:33:43.160Z,13.36
2022-10-25T05:35:03.420Z,13.36
2022-10-25T05:35:43.151Z,13.33
2022-10-25T05:36:43.390Z,13.33
2022-10-25T05:37:43.153Z,13.33
2022-10-25T05:38:43.391Z,13.36
2022-10-25T05:39:43.120Z,13.38
2022-10-25T05:40:43.373Z,13.36
2022-10-25T05:41:43.154Z,13.38
2022-10-25T05:42:43.434Z,13.39
2022-10-25T05:43:43.131Z,13.38
2022-10-25T05:45:03.378Z,13.38
2022-10-25T05:45:43.106Z,13.39
2022-10-25T05:46:43.339Z,13.39
2022-10-25T05:47:43.098Z,13.39
2022-10-25T05:48:48.139Z,13.39
2022-10-25T05:49:44.096Z,13.39
2022-10-25T05:50:43.365Z,13.39
2022-10-25T05:51:43.074Z,13.42
2022-10-25T05:52:43.505Z,13.42
2022-10-25T05:53:43.055Z,13.42
2022-10-25T05:55:03.324Z,13.45
2022-10-25T05:55:43.046Z,13.46
2022-10-25T05:56:43.293Z,13.46
2022-10-25T05:57:43.045Z,13.46
2022-10-25T05:58:43.295Z,13.48
2022-10-25T05:59:43.082Z,13.48
2022-10-25T06:00:44.248Z,13.49
2022-10-25T06:01:43.178Z,13.51
2022-10-25T06:02:44.399Z,13.49
2022-10-25T06:03:43.044Z,13.49
2022-10-25T06:05:03.316Z,13.51
2022-10-25T06:05:43.019Z,13.49
2022-10-25T06:06:43.276Z,13.48
2022-10-25T06:07:42.996Z,13.48
2022-10-25T06:08:42.768Z,13.48
2022-10-25T06:09:42.991Z,13.48
2022-10-25T06:10:42.766Z,13.46
2022-10-25T06:11:42.982Z,13.46
2022-10-25T06:12:43.219Z,13.44
2022-10-25T06:13:42.958Z,13.42
2022-10-25T06:15:02.740Z,13.42
2022-10-25T06:15:42.961Z,13.44
2022-10-25T06:16:42.715Z,13.44
2022-10-25T06:17:42.980Z,13.42
2022-10-25T06:18:42.721Z,13.42
2022-10-25T06:19:42.955Z,13.41
2022-10-25T06:20:42.702Z,13.41
2022-10-25T06:21:42.947Z,13.41
2022-10-25T06:22:42.687Z,13.42
2022-10-25T06:23:42.929Z,13.41
2022-10-25T06:25:02.704Z,13.44
2022-10-25T06:25:42.933Z,13.42
2022-10-25T06:26:42.722Z,13.42
2022-10-25T06:27:42.995Z,13.44
2022-10-25T06:28:42.749Z,13.42
2022-10-25T06:29:43.010Z,13.44
2022-10-25T06:30:42.765Z,13.42
2022-10-25T06:31:42.501Z,13.44
2022-10-25T06:32:42.746Z,13.44
2022-10-25T06:33:42.604Z,13.44
2022-10-25T06:35:02.766Z,13.44
2022-10-25T06:35:42.501Z,13.42
2022-10-25T06:36:42.745Z,13.41
2022-10-25T06:37:42.477Z,13.42
2022-10-25T06:38:42.725Z,13.41
2022-10-25T06:39:42.923Z,13.42
2022-10-25T06:40:42.737Z,13.42
2022-10-25T06:41:42.485Z,13.39
2022-10-25T06:42:43.608Z,13.41
2022-10-25T06:43:42.489Z,13.42
2022-10-25T06:45:02.761Z,13.42
2022-10-25T06:45:43.463Z,13.41
2022-10-25T06:47:15.463Z,13.42
2022-10-25T06:47:43.847Z,13.41
2022-10-25T06:48:42.729Z,13.44
2022-10-25T06:49:42.390Z,13.45
2022-10-25T06:50:42.637Z,13.44
2022-10-25T06:51:42.509Z,13.46
2022-10-25T06:52:42.652Z,13.48
2022-10-25T06:53:42.388Z,13.49
2022-10-25T06:55:04.181Z,13.54
2022-10-25T06:55:42.484Z,13.55
2022-10-25T06:56:42.732Z,13.57
2022-10-25T06:57:42.472Z,13.57
2022-10-25T06:58:42.720Z,13.55
2022-10-25T06:59:42.457Z,13.59
2022-10-25T07:00:44.849Z,13.60
2022-10-25T07:01:42.547Z,13.62
2022-10-25T07:02:42.218Z,13.64
2022-10-25T07:03:42.483Z,13.66
2022-10-25T07:05:02.974Z,13.67
2022-10-25T07:05:42.518Z,13.69
2022-10-25T07:06:42.253Z,13.75
2022-10-25T07:07:42.488Z,13.81
2022-10-25T07:08:42.226Z,13.84
2022-10-25T07:09:42.481Z,13.85
2022-10-25T07:10:42.225Z,13.85
2022-10-25T07:11:42.475Z,13.89
2022-10-25T07:12:42.226Z,13.99
2022-10-25T07:13:42.465Z,13.96
2022-10-25T07:15:02.450Z,14.00
2022-10-25T07:15:42.255Z,14.00
2022-10-25T07:16:42.309Z,14.03
2022-10-25T07:17:42.058Z,14.03
2022-10-25T07:18:42.305Z,14.07
2022-10-25T07:19:42.027Z,14.17
2022-10-25T07:20:42.271Z,14.15
2022-10-25T07:21:42.513Z,14.14
2022-10-25T07:22:42.270Z,14.15
2022-10-25T07:23:42.056Z,14.15
2022-10-25T07:25:03.807Z,14.17
2022-10-25T07:25:42.060Z,14.17
2022-10-25T07:26:42.311Z,14.17
2022-10-25T07:27:42.080Z,14.15
2022-10-25T07:28:42.333Z,14.14
2022-10-25T07:29:42.049Z,14.15
2022-10-25T07:30:42.281Z,14.17
2022-10-25T07:31:42.043Z,14.15
2022-10-25T07:32:42.622Z,14.20
2022-10-25T07:33:42.026Z,14.21
2022-10-25T07:35:03.809Z,14.24
2022-10-25T07:35:52.333Z,14.24
2022-10-25T07:36:43.106Z,14.27
2022-10-25T07:37:41.847Z,14.27
2022-10-25T07:38:42.073Z,14.32
2022-10-25T07:39:41.821Z,14.35
2022-10-25T07:40:42.086Z,14.36
2022-10-25T07:41:41.832Z,14.37
2022-10-25T07:42:42.072Z,14.45
2022-10-25T07:43:41.829Z,14.47
2022-10-25T07:45:02.988Z,14.52
2022-10-25T07:45:41.873Z,14.54
2022-10-25T07:46:42.115Z,14.60
2022-10-25T07:47:41.874Z,14.70
2022-10-25T07:48:42.107Z,14.73
2022-10-25T07:49:41.859Z,14.84
2022-10-25T07:50:42.116Z,15.27
2022-10-25T07:51:41.876Z,16.01
2022-10-25T07:52:42.118Z,16.50
2022-10-25T07:53:41.858Z,16.52
2022-10-25T07:55:03.130Z,16.33
2022-10-25T07:55:41.908Z,16.17
2022-10-25T07:56:42.156Z,16.05
2022-10-25T07:57:41.897Z,15.92
2022-10-25T07:58:41.742Z,15.82
2022-10-25T07:59:41.993Z,15.80
2022-10-25T08:00:41.754Z,15.80
2022-10-25T08:01:42.053Z,15.84
2022-10-25T08:02:41.794Z,15.80
2022-10-25T08:03:41.998Z,15.76
2022-10-25T08:05:02.761Z,15.80
2022-10-25T08:05:41.672Z,15.82
2022-10-25T08:06:42.857Z,15.86
2022-10-25T08:07:42.637Z,15.92
2022-10-25T08:08:42.491Z,16.00
2022-10-25T08:09:42.446Z,16.09
2022-10-25T08:10:42.977Z,16.15
2022-10-25T08:11:43.271Z,16.09
2022-10-25T08:12:42.544Z,16.09
2022-10-25T08:13:41.915Z,16.08
2022-10-25T08:15:01.668Z,16.24
2022-10-25T08:15:43.354Z,16.27
2022-10-25T08:16:43.145Z,16.46
2022-10-25T08:17:43.006Z,16.50
2022-10-25T08:18:42.778Z,16.46
2022-10-25T08:19:42.574Z,16.52
2022-10-25T08:21:01.213Z,16.46
2022-10-25T08:21:43.372Z,16.56
2022-10-25T08:22:41.835Z,16.56
2022-10-25T08:23:42.616Z,16.48
2022-10-25T08:25:02.454Z,16.63
2022-10-25T08:25:42.536Z,16.73
2022-10-25T08:26:41.598Z,16.86
2022-10-25T08:27:41.746Z,16.83
2022-10-25T08:28:41.479Z,16.71
2022-10-25T08:29:41.742Z,16.70
2022-10-25T08:30:40.788Z,16.94
2022-10-25T08:31:40.817Z,16.86
2022-10-25T08:32:40.795Z,16.67
2022-10-25T08:33:41.550Z,16.58
2022-10-25T08:35:01.374Z,16.46
2022-10-25T08:35:41.547Z,16.45
2022-10-25T08:36:41.284Z,16.66
2022-10-25T08:37:41.518Z,16.66
2022-10-25T08:38:41.268Z,16.82
2022-10-25T08:39:41.509Z,17.14
2022-10-25T08:40:41.268Z,17.43
2022-10-25T08:41:41.501Z,17.43
2022-10-25T08:42:41.259Z,17.19
2022-10-25T08:43:41.524Z,17.00
2022-10-25T08:45:01.280Z,17.11
2022-10-25T08:45:43.765Z,17.26
2022-10-25T08:46:41.253Z,17.40
2022-10-25T08:47:41.504Z,18.11
2022-10-25T08:48:41.267Z,19.36
2022-10-25T08:49:41.499Z,20.23
2022-10-25T08:50:41.251Z,20.79
2022-10-25T08:51:41.493Z,20.32
2022-10-25T08:52:41.242Z,19.73
2022-10-25T08:53:41.518Z,19.43
2022-10-25T08:55:04.714Z,19.25
2022-10-25T08:55:44.542Z,19.68
2022-10-25T08:56:56.453Z,20.31
2022-10-25T08:57:42.486Z,20.14
2022-10-25T08:58:41.225Z,19.65
2022-10-25T08:59:48.756Z,19.29
2022-10-25T09:00:41.004Z,19.00
2022-10-25T09:01:41.396Z,18.54
2022-10-25T09:02:40.982Z,18.32
2022-10-25T09:05:01.551Z,17.82
2022-10-25T09:05:41.239Z,17.74
2022-10-25T09:06:40.986Z,17.62
2022-10-25T09:07:42.749Z,17.43
2022-10-25T09:08:40.985Z,17.33
2022-10-25T09:09:47.484Z,17.19
2022-10-25T09:10:41.239Z,17.14
2022-10-25T09:11:40.984Z,17.11
2022-10-25T09:12:41.223Z,17.01
2022-10-25T09:13:40.973Z,16.98
2022-10-25T09:15:01.215Z,16.89
2022-10-25T09:15:43.147Z,16.86
2022-10-25T09:16:41.202Z,16.79
2022-10-25T09:17:40.960Z,16.82
2022-10-25T09:18:41.203Z,16.75
2022-10-25T09:19:40.943Z,16.68
2022-10-25T09:20:41.184Z,16.60
2022-10-25T09:21:40.940Z,16.58
2022-10-25T09:22:41.191Z,16.57
2022-10-25T09:23:40.932Z,16.53
2022-10-25T09:25:01.385Z,16.50
2022-10-25T09:25:41.120Z,16.46
2022-10-25T09:26:40.844Z,16.41
2022-10-25T09:27:41.088Z,16.41
2022-10-25T09:28:40.826Z,16.45
2022-10-25T09:29:41.134Z,16.45
2022-10-25T09:30:40.825Z,16.46
2022-10-25T09:31:41.097Z,16.43
2022-10-25T09:32:40.827Z,16.39
2022-10-25T09:33:41.088Z,16.35
2022-10-25T09:35:00.814Z,16.35
2022-10-25T09:35:41.063Z,16.38
2022-10-25T09:36:40.819Z,16.33
2022-10-25T09:37:41.056Z,16.28
2022-10-25T09:38:40.832Z,16.30
2022-10-25T09:39:41.077Z,16.27
2022-10-25T09:40:45.219Z,16.25
2022-10-25T09:41:41.550Z,16.24
2022-10-25T09:42:40.797Z,16.23
2022-10-25T09:43:40.558Z,16.20
2022-10-25T09:45:00.810Z,16.17
2022-10-25T09:45:42.022Z,16.12
2022-10-25T09:46:40.780Z,16.12
2022-10-25T09:47:40.543Z,16.12
2022-10-25T09:48:40.796Z,16.20
2022-10-25T09:49:45.860Z,16.24
2022-10-25T09:50:40.623Z,16.25
2022-10-25T09:51:40.855Z,16.33
2022-10-25T09:52:40.631Z,16.42
2022-10-25T09:53:40.862Z,16.49
2022-10-25T09:55:00.669Z,16.53
2022-10-25T09:55:40.864Z,16.52
2022-10-25T09:56:40.609Z,16.50
2022-10-25T09:57:40.854Z,16.50
2022-10-25T09:58:40.598Z,16.42
2022-10-25T09:59:40.832Z,16.38
2022-10-25T10:00:40.582Z,16.35
2022-10-25T10:01:40.968Z,16.31
2022-10-25T10:02:40.686Z,16.28
2022-10-25T10:03:40.854Z,16.24
2022-10-25T10:05:00.603Z,16.25
2022-10-25T10:05:40.342Z,16.21
2022-10-25T10:06:40.583Z,16.14
2022-10-25T10:07:40.340Z,16.09
2022-10-25T10:08:40.598Z,16.08
2022-10-25T10:09:45.524Z,16.07
2022-10-25T10:10:42.690Z,16.05
2022-10-25T10:11:41.992Z,16.05
2022-10-25T10:12:40.410Z,16.04
2022-10-25T10:13:42.115Z,16.04
2022-10-25T10:15:00.450Z,16.07
2022-10-25T10:15:42.190Z,16.07
2022-10-25T10:16:42.062Z,16.07
2022-10-25T10:17:41.831Z,16.09
2022-10-25T10:18:42.137Z,16.09
2022-10-25T10:19:41.410Z,16.11
2022-10-25T10:20:40.281Z,16.12
2022-10-25T10:21:42.004Z,16.12
2022-10-25T10:22:41.067Z,16.12
2022-10-25T10:23:41.712Z,16.14
2022-10-25T10:25:00.538Z,16.14
2022-10-25T10:25:41.749Z,16.11
2022-10-25T10:26:41.090Z,16.14
2022-10-25T10:27:41.891Z,16.17
2022-10-25T10:28:40.293Z,16.23
2022-10-25T10:29:42.006Z,16.46
2022-10-25T10:30:40.471Z,16.46
2022-10-25T10:31:41.081Z,16.43
2022-10-25T10:33:41.790Z,16.39
2022-10-25T10:35:00.154Z,16.38
2022-10-25T10:35:40.354Z,16.39
2022-10-25T10:36:40.107Z,16.39
2022-10-25T10:37:40.343Z,16.38
2022-10-25T10:38:40.494Z,16.34
2022-10-25T10:39:46.627Z,16.34
2022-10-25T10:40:40.377Z,16.35
2022-10-25T10:41:40.139Z,16.38
2022-10-25T10:42:40.360Z,16.35
2022-10-25T10:43:40.137Z,16.38
2022-10-25T10:45:00.397Z,16.31
2022-10-25T10:45:40.120Z,16.28
2022-10-25T10:46:40.363Z,16.31
2022-10-25T10:47:40.131Z,16.30
2022-10-25T10:48:42.759Z,16.30
2022-10-25T10:49:49.880Z,16.33
2022-10-25T10:50:44.825Z,16.35
2022-10-25T10:51:44.949Z,16.42
2022-10-25T10:52:40.168Z,16.48
2022-10-25T10:53:39.918Z,16.50
2022-10-25T10:55:00.453Z,16.52
2022-10-25T10:55:39.933Z,16.56
2022-10-25T10:56:40.181Z,16.61
2022-10-25T10:57:39.942Z,16.68
2022-10-25T10:58:40.181Z,16.71
2022-10-25T10:59:41.366Z,16.76
2022-10-25T11:00:40.290Z,16.83
2022-10-25T11:01:40.046Z,16.89
2022-10-25T11:02:40.403Z,16.93
2022-10-25T11:03:45.068Z,16.94
2022-10-25T11:05:02.170Z,17.06
2022-10-25T11:05:39.958Z,17.08
2022-10-25T11:06:40.202Z,17.21
2022-10-25T11:07:39.965Z,17.34
2022-10-25T11:08:39.659Z,17.77
2022-10-25T11:09:39.928Z,17.95
2022-10-25T11:10:39.679Z,17.97
2022-10-25T11:11:39.928Z,17.95
2022-10-25T11:12:41.311Z,17.81
2022-10-25T11:13:39.877Z,17.77
2022-10-25T11:15:00.417Z,17.75
2022-10-25T11:15:39.902Z,17.77
2022-10-25T11:16:39.637Z,17.78
2022-10-25T11:17:39.913Z,17.90
2022-10-25T11:18:39.635Z,18.52
2022-10-25T11:20:33.877Z,18.95
2022-10-25T11:20:39.037Z,19.50
2022-10-25T11:21:39.782Z,19.84
2022-10-25T11:22:39.547Z,19.95
2022-10-25T11:23:39.777Z,19.81
2022-10-25T11:25:01.029Z,19.63
2022-10-25T11:25:39.805Z,19.59
2022-10-25T11:26:39.559Z,19.40
2022-10-25T11:27:39.787Z,19.19
2022-10-25T11:28:39.548Z,18.95
2022-10-25T11:29:42.499Z,19.13
2022-10-25T11:30:39.536Z,19.29
2022-10-25T11:31:39.792Z,19.16
2022-10-25T11:32:39.547Z,18.92
2022-10-25T11:33:39.795Z,18.72
2022-10-25T11:35:00.568Z,19.76
2022-10-25T11:35:39.839Z,19.94
2022-10-25T11:36:39.590Z,19.80
2022-10-25T11:37:39.833Z,19.86
2022-10-25T11:38:39.580Z,19.98
2022-10-25T11:39:39.823Z,19.99
2022-10-25T11:40:39.555Z,19.83
2022-10-25T11:41:39.804Z,19.73
2022-10-25T11:42:39.550Z,19.51
2022-10-25T11:43:39.308Z,19.44
2022-10-25T11:45:02.591Z,20.21
2022-10-25T11:46:15.326Z,21.14
2022-10-25T11:47:06.562Z,22.46
2022-10-25T11:47:43.228Z,23.05
2022-10-25T11:48:39.574Z,22.76
2022-10-25T11:49:39.446Z,23.10
2022-10-25T11:50:39.697Z,23.19
2022-10-25T11:51:39.328Z,22.94
2022-10-25T11:52:39.573Z,22.42
2022-10-25T11:53:39.314Z,21.91
2022-10-25T11:55:01.108Z,21.32
2022-10-25T11:55:39.422Z,21.13
2022-10-25T11:56:39.699Z,21.07
2022-10-25T11:57:39.436Z,20.91
2022-10-25T11:58:39.172Z,20.67
2022-10-25T11:59:39.431Z,20.29
2022-10-25T12:00:39.188Z,19.99
2022-10-25T12:01:39.439Z,19.84
2022-10-25T12:02:39.214Z,19.73
2022-10-25T12:03:39.422Z,19.54
2022-10-25T12:05:00.694Z,19.25
2022-10-25T12:05:39.485Z,19.13
2022-10-25T12:06:39.237Z,19.00
2022-10-25T12:07:39.475Z,18.88
2022-10-25T12:08:39.228Z,18.80
2022-10-25T12:09:47.221Z,18.69
2022-10-25T12:10:39.549Z,18.60
2022-10-25T12:11:39.287Z,18.54
2022-10-25T12:12:39.507Z,18.50
2022-10-25T12:13:39.229Z,18.45
2022-10-25T12:15:00.148Z,18.44
2022-10-25T12:15:39.273Z,18.39
2022-10-25T12:16:39.036Z,18.36
2022-10-25T12:17:39.248Z,18.35
2022-10-25T12:18:38.984Z,18.32
2022-10-25T12:19:39.249Z,18.29
2022-10-25T12:20:38.999Z,18.29
2022-10-25T12:21:39.240Z,18.26
2022-10-25T12:22:38.984Z,18.33
2022-10-25T12:23:39.252Z,18.36
2022-10-25T12:24:59.714Z,18.41
2022-10-25T12:25:39.264Z,18.41
2022-10-25T12:26:39.008Z,18.44
2022-10-25T12:27:39.259Z,18.44
2022-10-25T12:28:39.002Z,18.42
2022-10-25T12:29:39.239Z,18.51
2022-10-25T12:30:38.986Z,18.65
2022-10-25T12:31:39.230Z,18.76
2022-10-25T12:32:38.978Z,18.81
2022-10-25T12:33:39.221Z,18.84
2022-10-25T12:35:00.535Z,18.85
2022-10-25T12:35:40.266Z,18.91
2022-10-25T12:36:39.060Z,18.98
2022-10-25T12:37:38.785Z,18.95
2022-10-25T12:38:39.038Z,18.94
2022-10-25T12:39:38.787Z,18.98
2022-10-25T12:40:41.413Z,18.99
2022-10-25T12:41:38.771Z,19.07
2022-10-25T12:42:39.025Z,19.04
2022-10-25T12:43:38.769Z,18.94
2022-10-25T12:44:59.236Z,18.80
2022-10-25T12:45:38.855Z,18.72
2022-10-25T12:46:39.108Z,18.58
2022-10-25T12:47:38.862Z,18.48
2022-10-25T12:48:39.117Z,18.44
2022-10-25T12:49:38.866Z,18.41
2022-10-25T12:50:39.106Z,18.41
2022-10-25T12:51:38.838Z,18.36
2022-10-25T12:52:39.075Z,18.37
2022-10-25T12:53:38.830Z,18.41
2022-10-25T12:54:59.680Z,18.39